createdAt,value
2018-01-02T00:00:10.732Z,995.30
2018-01-02T00:01:36.412Z,995.35
2018-01-02T00:02:10.738Z,995.35
2018-01-02T00:03:10.736Z,995.35
2018-01-02T00:04:11.873Z,995.39
2018-01-02T00:05:10.743Z,995.42
2018-01-02T00:06:12.789Z,995.44
2018-01-02T00:07:10.748Z,995.46
2018-01-02T00:08:22.428Z,995.45
2018-01-02T00:09:10.761Z,995.49
2018-01-02T00:10:11.796Z,995.47
2018-01-02T00:11:10.762Z,995.52
2018-01-02T00:12:16.412Z,995.54
2018-01-02T00:13:10.772Z,995.52
2018-01-02T00:14:10.793Z,995.63
2018-01-02T00:15:10.780Z,995.59
2018-01-02T00:16:35.484Z,995.62
2018-01-02T00:17:10.779Z,995.60
2018-01-02T00:18:10.782Z,995.67
2018-01-02T00:19:31.797Z,995.70
2018-01-02T00:20:10.783Z,995.75
2018-01-02T00:21:10.792Z,995.73
2018-01-02T00:22:17.403Z,995.75
2018-01-02T00:23:10.794Z,995.73
2018-01-02T00:24:27.448Z,995.75
2018-01-02T00:25:10.800Z,995.79
2018-01-02T00:26:11.902Z,995.87
2018-01-02T00:27:10.808Z,995.83
2018-01-02T00:28:10.886Z,995.90
2018-01-02T00:29:10.809Z,995.82
2018-01-02T00:30:10.901Z,995.90
2018-01-02T00:31:10.817Z,995.94
2018-01-02T00:32:10.917Z,995.95
2018-01-02T00:33:10.814Z,995.88
2018-01-02T00:34:21.477Z,995.95
2018-01-02T00:35:10.827Z,995.97
2018-01-02T00:36:10.835Z,996.01
2018-01-02T00:37:10.836Z,996.00
2018-01-02T00:38:10.854Z,996.00
2018-01-02T00:39:10.840Z,996.03
2018-01-02T00:40:10.864Z,996.04
2018-01-02T00:41:10.841Z,996.13
2018-01-02T00:42:17.435Z,996.14
2018-01-02T00:43:10.847Z,996.13
2018-01-02T00:44:46.421Z,996.17
2018-01-02T00:45:10.861Z,996.17
2018-01-02T00:46:10.854Z,996.19
2018-01-02T00:47:17.470Z,996.24
2018-01-02T00:48:10.859Z,996.23
2018-01-02T00:49:16.453Z,996.25
2018-01-02T00:50:10.867Z,996.23
2018-01-02T00:51:15.450Z,996.27
2018-01-02T00:52:10.873Z,996.26
2018-01-02T00:53:11.981Z,996.38
2018-01-02T00:54:10.877Z,996.29
2018-01-02T00:55:35.443Z,996.39
2018-01-02T00:56:10.886Z,996.34
2018-01-02T00:57:17.435Z,996.43
2018-01-02T00:58:10.899Z,996.44
2018-01-02T00:59:22.464Z,996.46
2018-01-02T01:00:10.892Z,996.41
2018-01-02T01:01:12.957Z,996.50
2018-01-02T01:02:10.898Z,996.47
2018-01-02T01:03:12.974Z,996.50
2018-01-02T01:04:10.908Z,996.52
2018-01-02T01:58:41.189Z,997.65
2018-01-02T01:59:39.358Z,997.70
2018-01-02T02:00:39.333Z,997.68
2018-01-02T02:01:39.373Z,997.72
2018-01-02T02:02:39.339Z,997.73
2018-01-02T02:03:40.414Z,997.79
2018-01-02T02:04:39.353Z,997.80
2018-01-02T02:05:39.403Z,997.85
2018-01-02T02:06:39.382Z,997.85
2018-01-02T02:07:39.364Z,997.76
2018-01-02T02:08:39.422Z,997.80
2018-01-02T02:09:39.376Z,997.80
2018-01-02T02:10:39.460Z,997.76
2018-01-02T02:11:39.361Z,997.73
2018-01-02T02:12:44.268Z,997.87
2018-01-02T02:13:39.379Z,997.87
2018-01-02T02:14:44.292Z,997.78
2018-01-02T02:15:39.380Z,997.83
2018-01-02T02:16:50.232Z,997.79
2018-01-02T02:17:39.371Z,997.80
2018-01-02T02:19:07.247Z,997.79
2018-01-02T02:19:39.387Z,997.80
2018-01-02T02:20:39.390Z,997.82
2018-01-02T02:22:08.297Z,997.81
2018-01-02T02:22:39.402Z,997.77
2018-01-02T02:23:45.264Z,997.81
2018-01-02T02:24:39.394Z,997.79
2018-01-02T02:25:40.470Z,997.76
2018-01-02T02:26:39.400Z,997.88
2018-01-02T02:27:51.235Z,997.83
2018-01-02T02:28:39.414Z,997.86
2018-01-02T02:29:44.284Z,997.86
2018-01-02T02:30:39.415Z,997.92
2018-01-02T02:31:41.538Z,997.94
2018-01-02T02:32:39.413Z,997.92
2018-01-02T02:34:05.305Z,997.96
2018-01-02T02:34:39.414Z,998.00
2018-01-02T02:35:39.427Z,997.98
2018-01-02T02:36:54.262Z,997.99
2018-01-02T02:37:39.431Z,998.00
2018-01-02T02:39:05.230Z,997.97
2018-01-02T02:39:39.438Z,998.04
2018-01-02T02:40:44.248Z,998.04
2018-01-02T02:41:39.445Z,998.07
2018-01-02T02:42:41.499Z,998.04
2018-01-02T02:43:39.444Z,998.05
2018-01-02T02:44:39.474Z,998.05
2018-01-02T02:45:39.450Z,998.09
2018-01-02T02:46:39.464Z,998.05
2018-01-02T02:47:39.483Z,998.07
2018-01-02T02:48:39.452Z,998.06
2018-01-02T02:50:12.265Z,998.07
2018-01-02T02:50:39.459Z,998.13
2018-01-02T02:51:46.269Z,998.11
2018-01-02T02:52:39.464Z,998.17
2018-01-02T02:53:41.574Z,998.17
2018-01-02T02:54:39.477Z,998.23
2018-01-02T02:55:39.540Z,998.17
2018-01-02T02:56:39.473Z,998.20
2018-01-02T02:58:12.217Z,998.25
2018-01-02T02:58:39.487Z,998.25
2018-01-02T02:59:39.482Z,998.27
2018-01-02T03:00:55.241Z,998.19
2018-01-02T03:01:39.490Z,998.20
2018-01-02T03:02:40.508Z,998.19
2018-01-02T03:03:39.501Z,998.19
2018-01-02T03:04:50.252Z,998.23
2018-01-02T03:05:39.510Z,998.25
2018-01-02T03:06:41.553Z,998.28
2018-01-02T03:07:39.498Z,998.27
2018-01-02T03:08:40.553Z,998.28
2018-01-02T03:09:39.508Z,998.26
2018-01-02T03:10:45.276Z,998.35
2018-01-02T03:11:39.534Z,998.32
2018-01-02T03:12:41.605Z,998.31
2018-01-02T03:13:39.527Z,998.26
2018-01-02T03:14:39.567Z,998.28
2018-01-02T03:15:39.524Z,998.27
2018-01-02T03:16:44.286Z,998.32
2018-01-02T03:17:39.529Z,998.28
2018-01-02T03:18:39.536Z,998.30
2018-01-02T03:19:39.535Z,998.27
2018-01-02T03:20:44.224Z,998.25
2018-01-02T03:21:39.540Z,998.29
2018-01-02T03:22:39.621Z,998.34
2018-01-02T03:23:39.545Z,998.34
2018-01-02T03:24:39.629Z,998.37
2018-01-02T03:25:39.551Z,998.44
2018-01-02T03:26:41.594Z,998.41
2018-01-02T03:27:39.553Z,998.41
2018-01-02T03:28:41.614Z,998.39
2018-01-02T03:29:39.565Z,998.43
2018-01-02T03:30:44.286Z,998.47
2018-01-02T03:31:39.553Z,998.48
2018-01-02T03:32:40.612Z,998.47
2018-01-02T03:33:39.570Z,998.45
2018-01-02T03:34:44.208Z,998.48
2018-01-02T03:35:39.578Z,998.49
2018-01-02T03:37:00.609Z,998.57
2018-01-02T03:37:39.575Z,998.52
2018-01-02T03:38:51.300Z,998.58
2018-01-02T03:39:39.569Z,998.56
2018-01-02T03:40:39.643Z,998.59
2018-01-02T03:41:39.605Z,998.59
2018-01-02T03:42:44.263Z,998.57
2018-01-02T03:43:39.592Z,998.54
2018-01-02T03:44:39.672Z,998.51
2018-01-02T03:45:39.596Z,998.58
2018-01-02T03:46:39.682Z,998.58
2018-01-02T03:47:39.603Z,998.54
2018-01-02T03:48:52.308Z,998.55
2018-01-02T03:49:39.606Z,998.57
2018-01-02T03:50:39.708Z,998.59
2018-01-02T03:51:39.620Z,998.68
2018-01-02T03:52:39.727Z,998.63
2018-01-02T03:53:39.610Z,998.62
2018-01-02T03:54:39.632Z,998.57
2018-01-02T03:55:39.628Z,998.62
2018-01-02T03:56:39.669Z,998.68
2018-01-02T03:57:39.619Z,998.65
2018-01-02T03:58:39.665Z,998.65
2018-01-02T03:59:39.626Z,998.67
2018-01-02T04:01:00.645Z,998.69
2018-01-02T04:01:39.634Z,998.67
2018-01-02T04:02:39.639Z,998.67
2018-01-02T04:03:41.743Z,998.71
2018-01-02T04:04:39.638Z,998.71
2018-01-02T04:05:41.756Z,998.68
2018-01-02T04:06:39.643Z,998.74
2018-01-02T04:07:52.213Z,998.75
2018-01-02T04:08:39.645Z,998.79
2018-01-02T04:09:39.738Z,998.84
2018-01-02T04:10:39.660Z,998.80
2018-01-02T04:11:39.773Z,998.84
2018-01-02T04:12:39.670Z,998.85
2018-01-02T04:13:39.757Z,998.85
2018-01-02T04:14:39.661Z,998.88
2018-01-02T04:15:39.778Z,998.90
2018-01-02T04:16:39.672Z,998.94
2018-01-02T04:17:39.789Z,998.94
2018-01-02T04:18:39.677Z,999.00
2018-01-02T04:19:39.707Z,998.93
2018-01-02T04:20:39.673Z,999.00
2018-01-02T04:21:40.737Z,999.06
2018-01-02T04:22:39.674Z,998.98
2018-01-02T04:23:40.749Z,999.06
2018-01-02T04:24:39.690Z,999.00
2018-01-02T04:25:39.747Z,999.03
2018-01-02T04:26:39.694Z,999.03
2018-01-02T04:27:46.310Z,999.03
2018-01-02T04:28:39.716Z,999.11
2018-01-02T04:29:39.771Z,999.07
2018-01-02T04:30:39.695Z,999.10
2018-01-02T04:31:40.810Z,999.15
2018-01-02T04:32:39.704Z,999.10
2018-01-02T04:33:39.799Z,999.09
2018-01-02T04:34:39.705Z,999.08
2018-01-02T04:35:41.757Z,999.11
2018-01-02T04:36:39.725Z,999.14
2018-01-02T04:37:40.751Z,999.09
2018-01-02T04:38:39.725Z,999.10
2018-01-02T04:39:39.816Z,999.12
2018-01-02T04:40:39.724Z,999.11
2018-01-02T04:41:39.824Z,999.13
2018-01-02T04:42:39.738Z,999.17
2018-01-02T04:43:39.848Z,999.14
2018-01-02T04:44:39.737Z,999.23
2018-01-02T04:45:39.756Z,999.20
2018-01-02T04:46:39.752Z,999.20
2018-01-02T04:47:39.769Z,999.26
2018-01-02T04:48:39.749Z,999.30
2018-01-02T04:49:39.784Z,999.35
2018-01-02T04:50:39.752Z,999.37
2018-01-02T04:51:39.795Z,999.39
2018-01-02T04:52:39.751Z,999.41
2018-01-02T04:53:39.811Z,999.41
2018-01-02T04:54:39.763Z,999.45
2018-01-02T04:55:39.825Z,999.51
2018-01-02T04:56:39.765Z,999.50
2018-01-02T04:57:39.836Z,999.55
2018-01-02T04:58:39.772Z,999.62
2018-01-02T04:59:39.850Z,999.66
2018-01-02T05:00:39.770Z,999.65
2018-01-02T05:01:39.863Z,999.65
2018-01-02T05:02:39.783Z,999.70
2018-01-02T05:03:39.886Z,999.70
2018-01-02T05:04:39.778Z,999.67
2018-01-02T05:05:39.898Z,999.72
2018-01-02T05:06:39.781Z,999.71
2018-01-02T05:07:39.805Z,999.73
2018-01-02T05:08:39.788Z,999.80
2018-01-02T05:09:39.814Z,999.77
2018-01-02T05:10:39.795Z,999.85
2018-01-02T05:11:39.834Z,999.82
2018-01-02T05:12:39.798Z,999.81
2018-01-02T05:13:39.846Z,999.87
2018-01-02T05:14:39.805Z,999.92
2018-01-02T05:15:40.890Z,999.90
2018-01-02T05:16:39.819Z,999.95
2018-01-02T05:17:39.878Z,999.98
2018-01-02T05:18:39.815Z,999.98
2018-01-02T05:19:39.882Z,999.95
2018-01-02T05:20:39.817Z,999.99
2018-01-02T05:21:39.890Z,999.97
2018-01-02T05:22:39.820Z,1000.00
2018-01-02T05:23:39.916Z,1000.08
2018-01-02T05:24:39.823Z,1000.08
2018-01-02T05:25:39.923Z,1000.05
2018-01-02T05:26:39.831Z,1000.11
2018-01-02T05:27:39.942Z,1000.13
2018-01-02T05:28:39.839Z,1000.10
2018-01-02T05:29:39.851Z,1000.15
2018-01-02T05:30:39.842Z,1000.12
2018-01-02T05:31:39.861Z,1000.13
2018-01-02T05:32:39.845Z,1000.19
2018-01-02T05:33:39.877Z,1000.17
2018-01-02T05:34:39.857Z,1000.22
2018-01-02T05:35:39.892Z,1000.22
2018-01-02T05:36:39.855Z,1000.20
2018-01-02T05:37:40.923Z,1000.22
2018-01-02T05:38:39.857Z,1000.25
2018-01-02T05:39:39.919Z,1000.24
2018-01-02T05:40:39.862Z,1000.25
2018-01-02T05:41:39.935Z,1000.27
2018-01-02T05:42:39.868Z,1000.30
2018-01-02T05:43:39.944Z,1000.32
2018-01-02T05:44:39.877Z,1000.33
2018-01-02T05:45:39.959Z,1000.40
2018-01-02T05:46:39.880Z,1000.38
2018-01-02T05:47:39.970Z,1000.38
2018-01-02T05:48:39.877Z,1000.41
2018-01-02T05:49:39.987Z,1000.39
2018-01-02T05:50:39.889Z,1000.37
2018-01-02T05:51:39.995Z,1000.41
2018-01-02T05:52:39.898Z,1000.37
2018-01-02T05:53:39.916Z,1000.45
2018-01-02T05:54:39.894Z,1000.48
2018-01-02T05:55:39.929Z,1000.48
2018-01-02T05:56:41.106Z,1000.43
2018-01-02T05:57:39.937Z,1000.50
2018-01-02T05:58:39.905Z,1000.55
2018-01-02T05:59:39.949Z,1000.54
2018-01-02T06:00:39.905Z,1000.54
2018-01-02T06:01:39.962Z,1000.56
2018-01-02T06:02:39.923Z,1000.63
2018-01-02T06:03:39.979Z,1000.59
2018-01-02T06:04:39.922Z,1000.63
2018-01-02T06:05:39.993Z,1000.70
2018-01-02T06:06:39.928Z,1000.75
2018-01-02T06:07:41.028Z,1000.78
2018-01-02T06:08:39.921Z,1000.77
2018-01-02T06:09:40.020Z,1000.80
2018-01-02T06:10:39.926Z,1000.76
2018-01-02T06:11:40.032Z,1000.82
2018-01-02T06:12:39.936Z,1000.83
2018-01-02T06:13:40.046Z,1000.91
2018-01-02T06:14:39.938Z,1000.94
2018-01-02T06:15:39.959Z,1000.93
2018-01-02T06:16:39.946Z,1000.97
2018-01-02T06:17:39.972Z,1001.01
2018-01-02T06:18:39.955Z,1001.07
2018-01-02T06:19:39.986Z,1001.04
2018-01-02T06:20:39.950Z,1001.03
2018-01-02T06:21:39.996Z,1001.07
2018-01-02T06:22:39.956Z,1001.12
2018-01-02T06:23:40.011Z,1001.13
2018-01-02T06:24:39.958Z,1001.12
2018-01-02T06:25:40.032Z,1001.17
2018-01-02T06:26:39.967Z,1001.17
2018-01-02T06:27:40.033Z,1001.18
2018-01-02T06:28:39.970Z,1001.23
2018-01-02T06:29:40.054Z,1001.23
2018-01-02T06:30:39.985Z,1001.24
2018-01-02T06:31:40.067Z,1001.21
2018-01-02T06:32:39.981Z,1001.24
2018-01-02T06:33:40.077Z,1001.28
2018-01-02T06:34:39.978Z,1001.24
2018-01-02T06:35:40.090Z,1001.28
2018-01-02T06:36:39.985Z,1001.29
2018-01-02T06:37:40.004Z,1001.37
2018-01-02T06:38:39.991Z,1001.34
2018-01-02T06:39:40.015Z,1001.29
2018-01-02T06:40:40.048Z,1001.37
2018-01-02T06:41:41.058Z,1001.36
2018-01-02T06:42:40.003Z,1001.34
2018-01-02T06:43:40.044Z,1001.42
2018-01-02T06:44:40.004Z,1001.42
2018-01-02T06:45:40.064Z,1001.38
2018-01-02T06:46:40.010Z,1001.46
2018-01-02T06:47:40.081Z,1001.45
2018-01-02T06:48:40.016Z,1001.43
2018-01-02T06:49:40.092Z,1001.41
2018-01-02T06:50:40.025Z,1001.47
2018-01-02T06:51:40.114Z,1001.43
2018-01-02T06:52:40.024Z,1001.44
2018-01-02T06:53:40.109Z,1001.43
2018-01-02T06:54:40.026Z,1001.47
2018-01-02T06:55:40.129Z,1001.45
2018-01-02T06:56:40.033Z,1001.47
2018-01-02T06:57:40.143Z,1001.50
2018-01-02T06:58:40.047Z,1001.50
2018-01-02T06:59:40.053Z,1001.56
2018-01-02T07:00:40.039Z,1001.57
2018-01-02T07:01:40.070Z,1001.63
2018-01-02T07:02:40.043Z,1001.63
2018-01-02T07:03:40.082Z,1001.67
2018-01-02T07:04:40.049Z,1001.67
2018-01-02T07:05:40.093Z,1001.63
2018-01-02T07:06:40.052Z,1001.62
2018-01-02T07:07:40.109Z,1001.70
2018-01-02T07:08:40.061Z,1001.72
2018-01-02T07:09:40.125Z,1001.77
2018-01-02T07:10:40.059Z,1001.76
2018-01-02T07:11:40.135Z,1001.82
2018-01-02T07:12:40.067Z,1001.82
2018-01-02T07:13:40.079Z,1001.82
2018-01-02T07:14:40.067Z,1001.79
2018-01-02T07:15:40.084Z,1001.81
2018-01-02T07:16:40.075Z,1001.82
2018-01-02T07:17:40.081Z,1001.84
2018-01-02T07:18:40.081Z,1001.91
2018-01-02T07:19:40.088Z,1001.95
2018-01-02T07:20:40.079Z,1001.91
2018-01-02T07:21:40.093Z,1001.96
2018-01-02T07:22:40.090Z,1001.95
2018-01-02T07:23:40.090Z,1001.96
2018-01-02T07:24:40.094Z,1002.02
2018-01-02T07:25:40.091Z,1002.04
2018-01-02T07:26:40.086Z,1002.04
2018-01-02T07:27:40.102Z,1002.04
2018-01-02T07:28:40.099Z,1002.08
2018-01-02T07:29:40.105Z,1002.02
2018-01-02T07:30:40.112Z,1002.06
2018-01-02T07:31:40.112Z,1002.08
2018-01-02T07:32:40.112Z,1002.09
2018-01-02T07:33:40.119Z,1002.11
2018-01-02T07:34:40.111Z,1002.13
2018-01-02T07:35:40.121Z,1002.19
2018-01-02T07:36:40.111Z,1002.18
2018-01-02T07:37:40.122Z,1002.26
2018-01-02T07:38:40.119Z,1002.20
2018-01-02T07:39:40.125Z,1002.28
2018-01-02T07:40:40.122Z,1002.21
2018-01-02T07:41:40.133Z,1002.17
2018-01-02T07:42:40.128Z,1002.17
2018-01-02T07:43:40.137Z,1002.22
2018-01-02T07:44:40.152Z,1002.23
2018-01-02T07:45:40.134Z,1002.27
2018-01-02T07:46:40.141Z,1002.31
2018-01-02T07:47:40.143Z,1002.35
2018-01-02T07:48:40.144Z,1002.35
2018-01-02T07:49:40.143Z,1002.33
2018-01-02T07:50:40.151Z,1002.37
2018-01-02T07:51:41.720Z,1002.40
2018-01-02T07:52:41.734Z,1002.40
2018-01-02T07:53:40.737Z,1002.38
2018-01-02T07:54:40.155Z,1002.39
2018-01-02T07:55:40.164Z,1002.39
2018-01-02T07:56:40.158Z,1002.41
2018-01-02T07:57:40.161Z,1002.50
2018-01-02T07:58:41.165Z,1002.48
2018-01-02T07:59:40.166Z,1002.51
2018-01-02T08:00:40.170Z,1002.49
2018-01-02T08:01:46.735Z,1002.52
2018-01-02T08:02:40.174Z,1002.44
2018-01-02T08:03:40.186Z,1002.50
2018-01-02T08:04:40.180Z,1002.52
2018-01-02T08:05:44.760Z,1002.57
2018-01-02T08:06:40.186Z,1002.58
2018-01-02T08:07:40.189Z,1002.54
2018-01-02T08:08:40.182Z,1002.65
2018-01-02T08:09:40.190Z,1002.62
2018-01-02T08:10:40.188Z,1002.63
2018-01-02T08:11:40.189Z,1002.72
2018-01-02T08:12:40.192Z,1002.77
2018-01-02T08:13:41.205Z,1002.80
2018-01-02T08:14:40.202Z,1002.77
2018-01-02T08:15:44.743Z,1002.79
2018-01-02T08:16:40.255Z,1002.90
2018-01-02T08:17:44.836Z,1002.89
2018-01-02T08:18:40.207Z,1002.88
2018-01-02T08:19:40.235Z,1002.89
2018-01-02T08:20:40.207Z,1002.93
2018-01-02T08:21:42.297Z,1002.93
2018-01-02T08:22:40.212Z,1003.01
2018-01-02T08:23:46.815Z,1003.01
2018-01-02T08:24:40.222Z,1002.99
2018-01-02T08:25:45.792Z,1002.98
2018-01-02T08:26:40.237Z,1003.06
2018-01-02T08:27:40.284Z,1003.02
2018-01-02T08:28:40.243Z,1003.03
2018-01-02T08:29:41.327Z,1003.07
2018-01-02T08:30:40.229Z,1003.07
2018-01-02T08:31:44.736Z,1003.05
2018-01-02T08:32:40.232Z,1003.05
2018-01-02T08:33:42.290Z,1003.09
2018-01-02T08:34:40.240Z,1003.16
2018-01-02T08:35:40.237Z,1003.13
2018-01-02T08:36:40.245Z,1003.10
2018-01-02T08:37:41.259Z,1003.11
2018-01-02T08:38:40.245Z,1003.12
2018-01-02T08:39:42.257Z,1003.23
2018-01-02T08:40:40.253Z,1003.14
2018-01-02T08:41:41.258Z,1003.16
2018-01-02T08:42:40.258Z,1003.18
2018-01-02T08:43:41.261Z,1003.20
2018-01-02T08:44:40.255Z,1003.26
2018-01-02T08:45:41.267Z,1003.25
2018-01-02T08:46:40.269Z,1003.31
2018-01-02T08:47:41.272Z,1003.36
2018-01-02T08:48:40.271Z,1003.36
2018-01-02T08:49:40.271Z,1003.38
2018-01-02T08:50:40.273Z,1003.37
2018-01-02T08:51:40.276Z,1003.40
2018-01-02T08:52:40.281Z,1003.41
2018-01-02T08:53:42.291Z,1003.48
2018-01-02T08:54:40.285Z,1003.45
2018-01-02T08:55:45.250Z,1003.50
2018-01-02T08:56:40.286Z,1003.59
2018-01-02T08:57:40.308Z,1003.57
2018-01-02T08:58:40.291Z,1003.58
2018-01-02T08:59:46.245Z,1003.57
2018-01-02T09:00:40.293Z,1003.62
2018-01-02T09:01:41.310Z,1003.61
2018-01-02T09:02:40.300Z,1003.66
2018-01-02T09:03:41.326Z,1003.64
2018-01-02T09:04:40.305Z,1003.70
2018-01-02T09:05:42.312Z,1003.70
2018-01-02T09:06:40.301Z,1003.69
2018-01-02T09:07:42.318Z,1003.75
2018-01-02T09:08:40.312Z,1003.78
2018-01-02T09:09:40.324Z,1003.85
2018-01-02T09:10:40.320Z,1003.84
2018-01-02T09:11:40.324Z,1003.80
2018-01-02T09:12:40.319Z,1003.85
2018-01-02T09:13:41.322Z,1003.86
2018-01-02T09:14:40.326Z,1003.88
2018-01-02T09:15:41.330Z,1003.91
2018-01-02T09:16:40.333Z,1003.92
2018-01-02T09:17:40.343Z,1003.94
2018-01-02T09:18:40.335Z,1003.93
2018-01-02T09:19:41.340Z,1003.98
2018-01-02T09:20:40.337Z,1003.96
2018-01-02T09:21:40.351Z,1003.94
2018-01-02T09:22:40.340Z,1004.00
2018-01-02T09:28:28.352Z,1004.08
2018-01-02T09:29:20.924Z,1004.02
2018-01-02T09:30:21.928Z,1004.02
2018-01-02T09:31:20.939Z,1004.02
2018-01-02T09:32:22.942Z,1004.06
2018-01-02T09:33:20.931Z,1004.05
2018-01-02T09:34:37.797Z,1004.11
2018-01-02T09:35:20.936Z,1004.10
2018-01-02T09:36:35.799Z,1004.16
2018-01-02T09:37:20.945Z,1004.14
2018-01-02T09:38:21.959Z,1004.15
2018-01-02T09:39:20.948Z,1004.18
2018-01-02T09:40:35.791Z,1004.14
2018-01-02T09:41:20.954Z,1004.19
2018-01-02T09:42:22.061Z,1004.18
2018-01-02T09:43:20.953Z,1004.21
2018-01-02T09:44:22.073Z,1004.24
2018-01-02T09:45:20.956Z,1004.18
2018-01-02T09:46:21.990Z,1004.22
2018-01-02T09:47:20.965Z,1004.24
2018-01-02T09:48:23.019Z,1004.24
2018-01-02T09:49:20.969Z,1004.23
2018-01-02T09:50:22.009Z,1004.17
2018-01-02T09:51:20.970Z,1004.23
2018-01-02T09:52:21.000Z,1004.22
2018-01-02T09:53:20.972Z,1004.20
2018-01-02T09:54:23.062Z,1004.23
2018-01-02T09:55:20.977Z,1004.27
2018-01-02T09:56:22.052Z,1004.21
2018-01-02T09:57:20.982Z,1004.27
2018-01-02T09:58:21.047Z,1004.26
2018-01-02T09:59:21.002Z,1004.35
2018-01-02T10:00:22.100Z,1004.32
2018-01-02T10:01:20.996Z,1004.37
2018-01-02T10:02:21.068Z,1004.39
2018-01-02T10:03:20.998Z,1004.34
2018-01-02T10:04:21.086Z,1004.37
2018-01-02T10:05:21.003Z,1004.39
2018-01-02T10:06:21.100Z,1004.37
2018-01-02T10:07:21.007Z,1004.43
2018-01-02T10:08:25.817Z,1004.41
2018-01-02T10:09:21.413Z,1004.40
2018-01-02T10:10:23.955Z,1004.45
2018-01-02T10:11:21.022Z,1004.45
2018-01-02T10:12:21.151Z,1004.51
2018-01-02T10:13:21.032Z,1004.51
2018-01-02T10:14:22.194Z,1004.56
2018-01-02T10:15:21.026Z,1004.52
2018-01-02T10:16:25.829Z,1004.56
2018-01-02T10:17:21.282Z,1004.59
2018-01-02T10:18:26.078Z,1004.62
2018-01-02T10:19:21.032Z,1004.63
2018-01-02T10:20:23.076Z,1004.60
2018-01-02T10:21:21.040Z,1004.64
2018-01-02T10:22:32.819Z,1004.61
2018-01-02T10:23:22.811Z,1004.67
2018-01-02T10:24:21.058Z,1004.68
2018-01-02T10:25:21.045Z,1004.66
2018-01-02T10:26:23.114Z,1004.66
2018-01-02T10:27:21.055Z,1004.71
2018-01-02T10:28:22.104Z,1004.70
2018-01-02T10:29:21.053Z,1004.71
2018-01-02T10:30:21.101Z,1004.66
2018-01-02T10:31:21.060Z,1004.69
2018-01-02T10:32:21.109Z,1004.66
2018-01-02T10:33:21.060Z,1004.64
2018-01-02T10:34:35.869Z,1004.70
2018-01-02T10:35:21.072Z,1004.65
2018-01-02T10:36:21.131Z,1004.68
2018-01-02T10:37:21.074Z,1004.63
2018-01-02T10:38:22.083Z,1004.61
2018-01-02T10:39:21.078Z,1004.66
2018-01-02T10:40:25.867Z,1004.72
2018-01-02T10:41:21.083Z,1004.77
2018-01-02T10:42:35.816Z,1004.71
2018-01-02T10:43:21.095Z,1004.76
2018-01-02T10:44:23.134Z,1004.77
2018-01-02T10:45:21.095Z,1004.73
2018-01-02T10:46:21.196Z,1004.75
2018-01-02T10:47:21.098Z,1004.77
2018-01-02T10:48:37.899Z,1004.79
2018-01-02T10:49:21.102Z,1004.84
2018-01-02T10:50:25.828Z,1004.77
2018-01-02T10:51:21.105Z,1004.81
2018-01-02T10:52:46.834Z,1004.80
2018-01-02T10:53:21.117Z,1004.78
2018-01-02T10:54:21.145Z,1004.73
2018-01-02T10:55:21.111Z,1004.77
2018-01-02T10:56:50.957Z,1004.83
2018-01-02T10:57:21.122Z,1004.81
2018-01-02T10:58:37.061Z,1004.86
2018-01-02T10:59:21.124Z,1004.84
2018-01-02T11:00:36.850Z,1004.83
2018-01-02T11:01:21.126Z,1004.85
2018-01-02T11:02:21.196Z,1004.88
2018-01-02T11:03:21.131Z,1004.82
2018-01-02T11:04:21.209Z,1004.83
2018-01-02T11:05:21.136Z,1004.89
2018-01-02T11:06:22.264Z,1004.88
2018-01-02T11:07:21.154Z,1004.89
2018-01-02T11:08:21.234Z,1004.89
2018-01-02T11:09:21.148Z,1004.90
2018-01-02T11:10:36.813Z,1004.88
2018-01-02T11:11:21.150Z,1004.87
2018-01-02T11:12:22.196Z,1004.90
2018-01-02T11:13:21.153Z,1004.89
2018-01-02T11:14:27.827Z,1004.96
2018-01-02T11:15:21.163Z,1004.97
2018-01-02T11:16:21.183Z,1004.98
2018-01-02T11:17:21.160Z,1004.94
2018-01-02T11:18:22.240Z,1005.00
2018-01-02T11:19:21.166Z,1004.97
2018-01-02T11:20:27.868Z,1004.98
2018-01-02T11:21:21.169Z,1005.01
2018-01-02T11:22:22.248Z,1005.04
2018-01-02T11:23:21.177Z,1005.08
2018-01-02T11:24:21.239Z,1005.14
2018-01-02T11:25:21.179Z,1005.05
2018-01-02T11:26:21.251Z,1005.09
2018-01-02T11:27:21.184Z,1005.09
2018-01-02T11:28:21.262Z,1005.08
2018-01-02T11:29:21.321Z,1005.03
2018-01-02T11:30:21.291Z,1005.07
2018-01-02T11:31:21.223Z,1005.13
2018-01-02T11:32:26.918Z,1005.12
2018-01-02T11:33:21.204Z,1005.13
2018-01-02T11:34:22.220Z,1005.16
2018-01-02T11:35:21.213Z,1005.10
2018-01-02T11:36:44.863Z,1005.09
2018-01-02T11:37:21.223Z,1005.13
2018-01-02T11:38:21.328Z,1005.12
2018-01-02T11:39:21.231Z,1005.09
2018-01-02T11:40:22.261Z,1005.10
2018-01-02T11:41:21.214Z,1005.15
2018-01-02T11:42:22.284Z,1005.14
2018-01-02T11:43:21.225Z,1005.14
2018-01-02T11:44:48.908Z,1005.15
2018-01-02T11:45:21.231Z,1005.13
2018-01-02T11:46:22.299Z,1005.13
2018-01-02T11:47:21.238Z,1005.10
2018-01-02T11:48:22.354Z,1005.08
2018-01-02T11:49:21.240Z,1005.10
2018-01-02T11:50:23.347Z,1005.10
2018-01-02T11:51:21.242Z,1005.13
2018-01-02T11:52:21.316Z,1005.09
2018-01-02T11:53:21.300Z,1005.05
2018-01-02T11:54:21.324Z,1005.06
2018-01-02T11:55:21.246Z,1005.07
2018-01-02T11:56:36.903Z,1005.00
2018-01-02T11:57:21.277Z,1005.05
2018-01-02T11:58:44.901Z,1004.97
2018-01-02T11:59:21.366Z,1005.07
2018-01-02T12:00:27.917Z,1004.97
2018-01-02T12:01:21.272Z,1004.93
2018-01-02T12:02:23.323Z,1004.92
2018-01-02T12:03:21.278Z,1004.99
2018-01-02T12:04:21.290Z,1004.93
2018-01-02T12:05:21.274Z,1004.89
2018-01-02T12:06:22.331Z,1004.88
2018-01-02T12:07:21.277Z,1004.88
2018-01-02T12:08:26.842Z,1004.84
2018-01-02T12:09:21.279Z,1004.83
2018-01-02T12:10:22.352Z,1004.83
2018-01-02T12:11:21.283Z,1004.87
2018-01-02T12:12:35.878Z,1004.85
2018-01-02T12:13:21.294Z,1004.84
2018-01-02T12:14:23.398Z,1004.88
2018-01-02T12:15:21.314Z,1004.89
2018-01-02T12:16:23.421Z,1004.92
2018-01-02T12:17:21.300Z,1004.88
2018-01-02T12:18:33.870Z,1004.88
2018-01-02T12:19:21.300Z,1004.89
2018-01-02T12:20:22.414Z,1004.86
2018-01-02T12:21:21.313Z,1004.82
2018-01-02T12:22:21.404Z,1004.83
2018-01-02T12:23:21.315Z,1004.81
2018-01-02T12:24:23.367Z,1004.78
2018-01-02T12:25:21.353Z,1004.72
2018-01-02T12:26:28.393Z,1004.67
2018-01-02T12:27:21.351Z,1004.65
2018-01-02T12:28:21.337Z,1004.61
2018-01-02T12:29:21.325Z,1004.62
2018-01-02T12:30:27.394Z,1004.61
2018-01-02T12:31:21.327Z,1004.58
2018-01-02T12:32:23.418Z,1004.62
2018-01-02T12:33:21.345Z,1004.65
2018-01-02T12:34:26.419Z,1004.62
2018-01-02T12:35:21.343Z,1004.54
2018-01-02T12:36:21.389Z,1004.53
2018-01-02T12:37:21.350Z,1004.54
2018-01-02T12:38:23.455Z,1004.58
2018-01-02T12:39:21.357Z,1004.61
2018-01-02T12:40:23.467Z,1004.58
2018-01-02T12:41:21.355Z,1004.59
2018-01-02T12:42:22.455Z,1004.51
2018-01-02T12:43:21.359Z,1004.64
2018-01-02T12:44:22.472Z,1004.53
2018-01-02T12:45:21.364Z,1004.53
2018-01-02T12:46:23.401Z,1004.50
2018-01-02T12:47:21.368Z,1004.54
2018-01-02T12:48:22.391Z,1004.55
2018-01-02T12:49:21.375Z,1004.48
2018-01-02T12:50:26.396Z,1004.48
2018-01-02T12:51:21.376Z,1004.53
2018-01-02T12:52:26.414Z,1004.58
2018-01-02T12:53:21.381Z,1004.54
2018-01-02T12:54:28.380Z,1004.55
2018-01-02T12:55:21.387Z,1004.52
2018-01-02T12:56:23.465Z,1004.52
2018-01-02T12:57:21.387Z,1004.53
2018-01-02T12:58:27.368Z,1004.50
2018-01-02T12:59:21.397Z,1004.57
2018-01-02T13:00:22.471Z,1004.55
2018-01-02T13:01:21.402Z,1004.55
2018-01-02T13:02:28.421Z,1004.60
2018-01-02T13:03:21.513Z,1004.61
2018-01-02T13:04:21.480Z,1004.60
2018-01-02T13:05:21.422Z,1004.61
2018-01-02T13:06:32.341Z,1004.65
2018-01-02T13:07:21.414Z,1004.61
2018-01-02T13:08:36.347Z,1004.63
2018-01-02T13:09:21.421Z,1004.70
2018-01-02T13:10:36.353Z,1004.62
2018-01-02T13:11:21.423Z,1004.59